createdAt,value
2019-02-26T00:00:58.782Z,6.67
2019-02-26T00:03:28.576Z,6.57
2019-02-26T00:05:59.448Z,7.30
2019-02-26T00:08:29.653Z,6.23
2019-02-26T00:11:01.250Z,5.63
2019-02-26T00:13:31.977Z,6.23
2019-02-26T00:16:05.597Z,6.37
2019-02-26T00:18:31.671Z,6.00
2019-02-26T00:21:02.455Z,6.77
2019-02-26T00:23:31.054Z,6.77
2019-02-26T00:26:00.029Z,6.40
2019-02-26T00:28:28.887Z,6.27
2019-02-26T00:30:59.516Z,5.62
2019-02-26T00:33:29.030Z,5.03
2019-02-26T00:35:57.926Z,5.63
2019-02-26T00:38:26.806Z,5.60
2019-02-26T00:40:57.773Z,5.70
2019-02-26T00:43:27.862Z,5.53
2019-02-26T00:45:58.318Z,5.83
2019-02-26T00:48:27.623Z,5.27
2019-02-26T00:50:57.304Z,6.37
2019-02-26T00:53:28.426Z,5.73
2019-02-26T00:55:59.401Z,5.70
2019-02-26T00:58:28.236Z,6.43
2019-02-26T01:00:57.261Z,5.80
2019-02-26T01:03:26.087Z,4.80
2019-02-26T01:05:56.954Z,5.37
2019-02-26T01:08:25.780Z,4.87
2019-02-26T01:10:54.706Z,4.53
2019-02-26T01:13:25.617Z,4.73
2019-02-26T01:15:54.323Z,4.73
2019-02-26T01:18:24.591Z,4.73
2019-02-26T01:20:54.908Z,4.47
2019-02-26T01:23:26.697Z,4.90
2019-02-26T01:25:55.174Z,5.63
2019-02-26T01:28:24.809Z,4.50
2019-02-26T01:30:56.188Z,5.07
2019-02-26T01:33:27.802Z,5.17
2019-02-26T01:35:57.880Z,5.50
2019-02-26T01:38:26.557Z,6.40
2019-02-26T01:40:56.015Z,6.30
2019-02-26T01:43:24.884Z,6.90
2019-02-26T01:45:55.387Z,7.08
2019-02-26T01:48:25.243Z,6.73
2019-02-26T01:50:55.212Z,6.97
2019-02-26T01:53:24.635Z,6.83
2019-02-26T01:55:53.587Z,6.53
2019-02-26T01:58:22.497Z,6.13
2019-02-26T02:00:55.302Z,6.53
2019-02-26T02:03:23.100Z,7.87
2019-02-26T02:05:54.712Z,6.15
2019-02-26T02:08:24.908Z,6.27
2019-02-26T02:10:57.163Z,5.93
2019-02-26T02:13:28.246Z,7.67
2019-02-26T02:15:55.443Z,6.83
2019-02-26T02:18:25.909Z,6.10
2019-02-26T02:20:55.091Z,6.30
2019-02-26T02:23:25.795Z,6.03
2019-02-26T02:25:54.748Z,5.83
2019-02-26T02:28:24.657Z,5.17
2019-02-26T02:30:54.430Z,6.57
2019-02-26T02:33:26.353Z,5.60
2019-02-26T02:35:53.969Z,6.37
2019-02-26T02:38:22.859Z,5.97
2019-02-26T02:40:52.825Z,5.93
2019-02-26T02:43:23.547Z,6.60
2019-02-26T02:45:55.150Z,6.27
2019-02-26T02:48:23.115Z,7.93
2019-02-26T02:50:51.985Z,6.97
2019-02-26T02:53:23.687Z,7.50
2019-02-26T02:55:51.646Z,7.47
2019-02-26T02:58:21.332Z,7.87
2019-02-26T03:00:52.288Z,7.33
2019-02-26T03:03:22.052Z,6.23
2019-02-26T03:05:50.841Z,7.00
2019-02-26T03:08:22.468Z,6.28
2019-02-26T03:10:50.414Z,6.50
2019-02-26T03:13:20.146Z,5.77
2019-02-26T03:15:51.042Z,6.47
2019-02-26T03:18:20.732Z,6.07
2019-02-26T03:20:51.377Z,6.20
2019-02-26T03:23:20.393Z,5.40
2019-02-26T03:25:50.503Z,5.53
2019-02-26T03:28:20.040Z,5.70
2019-02-26T03:30:48.861Z,5.63
2019-02-26T03:33:17.743Z,5.43
2019-02-26T03:35:46.634Z,4.87
2019-02-26T03:38:17.802Z,4.53
2019-02-26T03:40:48.992Z,5.07
2019-02-26T03:43:16.706Z,3.80
2019-02-26T03:45:48.082Z,4.70
2019-02-26T03:48:19.252Z,4.70
2019-02-26T03:50:46.908Z,4.17
2019-02-26T03:53:15.818Z,4.23
2019-02-26T03:55:45.144Z,4.67
2019-02-26T03:58:14.334Z,4.77
2019-02-26T04:00:44.771Z,6.20
2019-02-26T04:03:15.267Z,5.47
2019-02-26T04:05:44.787Z,5.00
2019-02-26T04:08:13.772Z,4.80
2019-02-26T04:10:42.753Z,4.77
2019-02-26T04:13:11.678Z,4.77
2019-02-26T04:15:40.663Z,4.93
2019-02-26T04:18:09.576Z,4.70
2019-02-26T04:20:43.554Z,5.73
2019-02-26T04:23:11.419Z,5.50
2019-02-26T04:26:02.379Z,5.22
2019-02-26T04:28:44.532Z,6.03
2019-02-26T04:31:33.863Z,5.47
2019-02-26T04:34:45.294Z,5.57
2019-02-26T04:38:09.288Z,5.17
2019-02-26T04:41:19.261Z,6.47
2019-02-26T04:44:31.361Z,5.90
2019-02-26T04:47:08.458Z,5.63
2019-02-26T04:49:42.111Z,6.67
2019-02-26T04:52:10.901Z,6.83
2019-02-26T04:54:39.507Z,7.10
2019-02-26T04:57:08.670Z,8.67
2019-02-26T04:59:40.760Z,7.33
2019-02-26T05:02:08.354Z,7.80
2019-02-26T05:04:39.360Z,6.93
2019-02-26T05:07:12.780Z,6.83
2019-02-26T05:09:39.180Z,5.93
2019-02-26T05:12:08.042Z,5.80
2019-02-26T05:14:36.859Z,6.40
2019-02-26T05:17:05.775Z,6.37
2019-02-26T05:19:36.408Z,8.53
2019-02-26T05:22:07.043Z,7.67
2019-02-26T05:24:37.908Z,6.73
2019-02-26T05:27:15.486Z,8.23
2019-02-26T05:29:46.789Z,7.67
2019-02-26T05:32:16.913Z,6.95
2019-02-26T05:34:48.058Z,7.07
2019-02-26T05:37:16.506Z,7.33
2019-02-26T05:39:46.905Z,9.07
2019-02-26T05:42:16.221Z,7.40
2019-02-26T05:44:45.175Z,8.67
2019-02-26T05:47:16.712Z,8.53
2019-02-26T05:49:45.808Z,8.97
2019-02-26T05:52:14.976Z,8.28
2019-02-26T05:54:43.852Z,7.17
2019-02-26T05:57:25.967Z,7.97
2019-02-26T05:59:43.518Z,10.43
2019-02-26T06:02:14.181Z,8.90
2019-02-26T06:04:44.494Z,8.10
2019-02-26T06:07:13.643Z,8.40
2019-02-26T06:09:42.425Z,6.97
2019-02-26T06:12:11.433Z,7.47
2019-02-26T06:14:40.197Z,6.53
2019-02-26T06:17:10.677Z,7.37
2019-02-26T06:19:45.090Z,7.40
2019-02-26T06:22:17.222Z,7.50
2019-02-26T06:24:44.942Z,7.83
2019-02-26T06:27:16.584Z,8.23
2019-02-26T06:29:44.677Z,8.53
2019-02-26T06:32:15.202Z,10.13
2019-02-26T06:34:44.190Z,8.87
2019-02-26T06:37:23.602Z,8.67
2019-02-26T06:39:54.998Z,10.73
2019-02-26T06:42:23.331Z,9.90
2019-02-26T06:44:52.273Z,8.53
2019-02-26T06:47:23.369Z,7.97
2019-02-26T06:49:52.759Z,8.15
2019-02-26T06:52:21.732Z,8.30
2019-02-26T06:54:54.744Z,8.43
2019-02-26T06:57:21.223Z,8.27
2019-02-26T06:59:51.012Z,7.37
2019-02-26T07:02:20.967Z,7.58
2019-02-26T07:04:49.918Z,7.40
2019-02-26T07:07:18.749Z,7.70
2019-02-26T07:09:47.618Z,6.77
2019-02-26T07:12:17.563Z,8.43
2019-02-26T07:14:48.360Z,8.27
2019-02-26T07:17:19.519Z,7.37
2019-02-26T07:19:48.513Z,7.10
2019-02-26T07:22:18.351Z,5.77
2019-02-26T07:24:49.448Z,8.33
2019-02-26T07:27:18.162Z,7.17
2019-02-26T07:29:47.978Z,7.93
2019-02-26T07:32:19.660Z,13.07
2019-02-26T07:34:50.208Z,7.93
2019-02-26T07:37:19.072Z,8.57
2019-02-26T07:39:49.598Z,5.67
2019-02-26T07:42:18.956Z,4.97
2019-02-26T07:44:47.916Z,5.80
2019-02-26T07:47:16.833Z,5.40
2019-02-26T07:49:45.713Z,5.60
2019-02-26T07:52:14.734Z,5.70
2019-02-26T07:54:44.803Z,6.20
2019-02-26T07:57:15.739Z,4.87
2019-02-26T07:59:47.089Z,5.00
2019-02-26T08:02:15.598Z,5.47
2019-02-26T08:04:44.489Z,5.70
2019-02-26T08:07:13.491Z,6.73
2019-02-26T08:09:42.328Z,6.03
2019-02-26T08:12:13.756Z,6.73
2019-02-26T08:14:42.927Z,6.63
2019-02-26T08:17:12.376Z,6.00
2019-02-26T08:19:43.699Z,6.03
2019-02-26T08:22:11.880Z,6.20
2019-02-26T08:24:40.693Z,6.30
2019-02-26T08:27:11.571Z,7.23
2019-02-26T08:29:40.040Z,6.90
2019-02-26T08:32:09.221Z,7.17
2019-02-26T08:34:39.770Z,5.47
2019-02-26T08:37:08.791Z,5.50
2019-02-26T08:39:38.662Z,6.50
2019-02-26T08:42:11.680Z,5.87
2019-02-26T08:44:40.560Z,6.83
2019-02-26T08:47:11.994Z,6.13
2019-02-26T08:49:40.742Z,5.57
2019-02-26T08:52:10.724Z,6.03
2019-02-26T08:54:39.606Z,5.80
2019-02-26T08:57:08.525Z,5.53
2019-02-26T08:59:37.392Z,6.07
2019-02-26T09:02:06.283Z,5.67
2019-02-26T09:04:37.780Z,5.17
2019-02-26T09:07:05.799Z,5.53
2019-02-26T09:09:34.684Z,6.00
2019-02-26T09:12:03.582Z,5.37
2019-02-26T09:14:37.268Z,5.43
2019-02-26T09:17:04.600Z,5.97
2019-02-26T09:19:35.436Z,5.40
2019-02-26T09:22:04.375Z,5.30
2019-02-26T09:24:34.092Z,5.57
2019-02-26T09:27:04.990Z,5.40
2019-02-26T09:29:34.321Z,6.00
2019-02-26T09:32:06.651Z,6.37
2019-02-26T09:34:39.339Z,6.33
2019-02-26T09:37:07.918Z,5.77
2019-02-26T09:39:38.928Z,6.00
2019-02-26T09:42:09.012Z,6.20
2019-02-26T09:44:37.598Z,6.60
2019-02-26T09:47:07.571Z,6.40
2019-02-26T09:49:36.659Z,7.27
2019-02-26T09:52:06.547Z,5.97
2019-02-26T09:54:40.397Z,6.30
2019-02-26T09:57:06.410Z,6.27
2019-02-26T09:59:35.961Z,8.53
2019-02-26T10:02:06.243Z,6.73
2019-02-26T10:04:35.238Z,6.47
2019-02-26T10:07:06.645Z,7.70
2019-02-26T10:09:37.213Z,7.87
2019-02-26T10:12:07.596Z,7.00
2019-02-26T10:14:38.358Z,7.80
2019-02-26T10:17:06.794Z,7.67
2019-02-26T10:19:38.190Z,7.27
2019-02-26T10:22:09.759Z,8.03
2019-02-26T10:24:39.699Z,7.43
2019-02-26T10:27:10.898Z,7.57
2019-02-26T10:29:39.912Z,7.83
2019-02-26T10:32:11.264Z,8.83
2019-02-26T10:34:40.469Z,7.83
2019-02-26T10:37:09.446Z,7.90
2019-02-26T10:39:38.442Z,8.47
2019-02-26T10:42:07.377Z,8.93
2019-02-26T10:44:36.346Z,8.97
2019-02-26T10:47:07.710Z,8.60
2019-02-26T10:49:36.084Z,7.63
2019-02-26T10:52:05.191Z,8.58
2019-02-26T10:54:39.317Z,8.37
2019-02-26T10:57:07.441Z,8.47
2019-02-26T10:59:37.696Z,7.60
2019-02-26T11:02:09.253Z,7.97
2019-02-26T11:04:41.126Z,8.00
2019-02-26T11:07:11.415Z,7.63
2019-02-26T11:09:39.408Z,7.87
2019-02-26T11:12:08.699Z,6.20
2019-02-26T11:14:39.596Z,6.87
2019-02-26T11:17:08.339Z,6.47
2019-02-26T11:19:39.534Z,5.93
2019-02-26T11:22:08.142Z,5.75
2019-02-26T11:24:37.137Z,6.73
2019-02-26T11:27:05.931Z,6.60
2019-02-26T11:29:36.386Z,6.13
2019-02-26T11:32:07.599Z,6.30
2019-02-26T11:34:38.248Z,6.17
2019-02-26T11:37:08.823Z,6.37
2019-02-26T11:39:37.984Z,6.12
2019-02-26T11:42:06.930Z,6.30
2019-02-26T11:44:35.941Z,6.65
2019-02-26T11:47:04.848Z,6.73
2019-02-26T11:49:36.695Z,7.10
2019-02-26T11:52:04.791Z,6.90
2019-02-26T11:54:35.075Z,7.27
2019-02-26T11:57:07.430Z,7.40
2019-02-26T11:59:36.442Z,6.87
2019-02-26T12:02:06.581Z,8.47
2019-02-26T12:04:35.526Z,8.20
2019-02-26T12:07:06.842Z,7.90
2019-02-26T12:09:38.017Z,7.93
2019-02-26T12:12:08.666Z,8.00
2019-02-26T12:14:37.948Z,7.43
2019-02-26T12:17:07.485Z,7.93
2019-02-26T12:19:37.215Z,7.50
2019-02-26T12:22:06.345Z,8.57
2019-02-26T12:24:36.155Z,8.53
2019-02-26T12:27:07.135Z,7.47
2019-02-26T12:29:35.975Z,7.17
2019-02-26T12:32:04.987Z,8.27
2019-02-26T12:34:35.168Z,7.73
2019-02-26T12:37:08.724Z,7.80
2019-02-26T12:39:35.483Z,7.00
2019-02-26T12:42:04.523Z,7.97
2019-02-26T12:44:37.434Z,6.20
2019-02-26T12:47:04.133Z,6.10
2019-02-26T12:49:36.536Z,5.40
2019-02-26T12:52:04.650Z,5.63
2019-02-26T12:54:37.197Z,6.20
2019-02-26T12:57:04.415Z,5.20
2019-02-26T12:59:33.347Z,5.50
2019-02-26T13:02:04.718Z,5.60
2019-02-26T13:04:33.035Z,6.47
2019-02-26T13:07:05.263Z,5.17
2019-02-26T13:09:32.717Z,6.10
2019-02-26T13:12:02.841Z,6.37
2019-02-26T13:14:31.882Z,6.80
2019-02-26T13:17:00.935Z,6.87
2019-02-26T13:19:33.255Z,4.93
2019-02-26T13:22:06.771Z,5.77
2019-02-26T13:24:31.474Z,6.50
2019-02-26T13:27:00.385Z,7.67
2019-02-26T13:29:29.253Z,7.50
2019-02-26T13:31:59.919Z,6.47
2019-02-26T13:34:28.868Z,5.63
2019-02-26T13:36:57.849Z,5.43
2019-02-26T13:39:33.020Z,6.17
2019-02-26T13:42:03.501Z,6.80
2019-02-26T13:44:28.164Z,6.10
2019-02-26T13:46:57.322Z,6.03
2019-02-26T13:49:26.201Z,5.13
2019-02-26T13:51:55.041Z,4.23
2019-02-26T13:54:23.984Z,4.50
2019-02-26T13:56:53.027Z,2.53
2019-02-26T13:59:21.946Z,4.20
2019-02-26T14:01:50.991Z,3.47
2019-02-26T14:04:19.852Z,4.07
2019-02-26T14:06:48.771Z,4.60
2019-02-26T14:09:17.656Z,3.87
2019-02-26T14:11:46.618Z,4.27
2019-02-26T14:14:15.417Z,5.60
2019-02-26T14:16:44.415Z,5.03
2019-02-26T14:19:13.321Z,5.00
2019-02-26T14:21:42.291Z,4.30
2019-02-26T14:24:11.242Z,4.40
2019-02-26T14:26:40.635Z,5.20
2019-02-26T14:29:09.684Z,4.80
2019-02-26T14:31:38.475Z,5.10
2019-02-26T14:34:07.445Z,5.03
2019-02-26T14:36:36.390Z,5.37
2019-02-26T14:39:06.622Z,5.97
2019-02-26T14:41:35.576Z,5.78
2019-02-26T14:44:04.554Z,5.90
2019-02-26T14:46:33.524Z,7.80
2019-02-26T14:49:02.576Z,7.35
2019-02-26T14:51:31.578Z,6.67
2019-02-26T14:54:00.527Z,8.08
2019-02-26T14:56:29.465Z,6.85
2019-02-26T14:58:58.338Z,8.03
2019-02-26T15:01:27.262Z,7.37
2019-02-26T15:03:56.504Z,6.53
2019-02-26T15:06:25.351Z,6.50
2019-02-26T15:08:54.290Z,7.13
2019-02-26T15:11:23.205Z,6.90
2019-02-26T15:13:52.178Z,7.70
2019-02-26T15:16:21.137Z,6.40
2019-02-26T15:18:50.021Z,6.58
2019-02-26T15:21:19.195Z,5.87
2019-02-26T15:23:48.115Z,5.97
2019-02-26T15:26:17.074Z,5.80
2019-02-26T15:28:46.072Z,6.10
2019-02-26T15:31:15.054Z,5.40
2019-02-26T15:33:44.012Z,5.40
2019-02-26T15:36:13.087Z,5.13
2019-02-26T15:38:42.070Z,5.67
2019-02-26T15:41:11.093Z,4.80
2019-02-26T15:43:39.875Z,4.83
2019-02-26T15:46:08.857Z,5.43
2019-02-26T15:48:37.850Z,7.37
2019-02-26T15:51:14.099Z,7.50
2019-02-26T15:53:37.519Z,6.17
2019-02-26T15:56:06.589Z,5.23
2019-02-26T15:58:35.540Z,6.13
2019-02-26T16:01:08.778Z,6.57
2019-02-26T16:03:37.819Z,8.50
2019-02-26T16:06:06.733Z,5.70
2019-02-26T16:08:35.811Z,6.77
2019-02-26T16:11:04.707Z,7.70
2019-02-26T16:13:33.675Z,6.40
2019-02-26T16:16:02.712Z,7.37
2019-02-26T16:18:31.596Z,8.07
2019-02-26T16:21:00.609Z,8.53
2019-02-26T16:23:29.533Z,9.73
2019-02-26T16:25:58.411Z,9.00
2019-02-26T16:28:27.972Z,11.03
2019-02-26T16:30:57.036Z,11.53
2019-02-26T16:33:26.047Z,17.10
2019-02-26T16:38:30.016Z,14.97
2019-02-26T16:40:59.065Z,12.53
2019-02-26T16:43:28.138Z,13.03
2019-02-26T16:45:57.053Z,14.37
2019-02-26T16:48:26.005Z,15.47
2019-02-26T16:50:55.106Z,13.37
2019-02-26T16:53:24.184Z,13.77
2019-02-26T16:55:53.051Z,11.30
2019-02-26T16:58:22.147Z,8.23
2019-02-26T17:00:51.199Z,6.90
2019-02-26T17:03:20.284Z,6.43
2019-02-26T17:05:49.220Z,17.07
2019-02-26T17:08:18.251Z,30.03
2019-02-26T17:10:47.248Z,22.20
2019-02-26T17:13:16.331Z,12.43
2019-02-26T17:15:45.433Z,8.70
2019-02-26T17:18:16.165Z,13.33
2019-02-26T17:20:45.277Z,8.37
2019-02-26T17:23:14.551Z,6.93
2019-02-26T17:25:43.677Z,6.20
2019-02-26T17:28:12.928Z,5.63
2019-02-26T17:30:41.956Z,6.93
2019-02-26T17:33:13.275Z,6.07
2019-02-26T17:35:41.619Z,7.40
2019-02-26T17:38:10.617Z,7.90
2019-02-26T17:40:39.625Z,7.20
2019-02-26T17:43:08.628Z,6.47
2019-02-26T17:45:37.931Z,6.27
2019-02-26T17:48:07.080Z,5.47
2019-02-26T17:50:36.329Z,5.13
2019-02-26T17:53:05.463Z,7.73
2019-02-26T17:55:34.399Z,6.13
2019-02-26T17:58:03.279Z,8.53
2019-02-26T18:00:35.450Z,6.13
2019-02-26T18:03:07.361Z,7.20
2019-02-26T18:05:39.390Z,7.93
2019-02-26T18:08:05.862Z,9.77
2019-02-26T18:10:36.579Z,7.77
2019-02-26T18:13:05.587Z,7.43
2019-02-26T18:15:34.605Z,6.13
2019-02-26T18:18:03.568Z,8.03
2019-02-26T18:20:32.636Z,16.43
2019-02-26T18:23:01.566Z,9.77
2019-02-26T18:25:30.554Z,8.80
2019-02-26T18:27:59.443Z,7.23
2019-02-26T18:30:28.743Z,8.23
2019-02-26T18:32:59.051Z,8.33
2019-02-26T18:35:28.228Z,8.10
2019-02-26T18:37:57.261Z,5.70
2019-02-26T18:40:28.321Z,6.83
2019-02-26T18:42:56.833Z,6.17
2019-02-26T18:45:27.866Z,6.27
2019-02-26T18:47:56.772Z,6.70
2019-02-26T18:50:28.615Z,5.43
2019-02-26T18:52:58.162Z,14.00
2019-02-26T18:55:28.360Z,25.97
2019-02-26T18:57:58.106Z,15.17
2019-02-26T19:00:27.162Z,12.73
2019-02-26T19:02:56.213Z,10.13
2019-02-26T19:05:25.114Z,10.70
2019-02-26T19:07:54.004Z,6.83
2019-02-26T19:10:22.997Z,8.17
2019-02-26T19:12:52.102Z,8.13
2019-02-26T19:15:21.255Z,7.60
2019-02-26T19:17:51.524Z,8.13
2019-02-26T19:20:22.468Z,11.03
2019-02-26T19:22:52.111Z,7.30
2019-02-26T19:25:21.189Z,6.97
2019-02-26T19:27:52.780Z,8.43
2019-02-26T19:30:21.308Z,9.53
2019-02-26T19:32:50.334Z,10.60
2019-02-26T19:35:19.346Z,8.53
2019-02-26T19:37:50.076Z,8.60
2019-02-26T19:40:20.437Z,7.87
2019-02-26T19:42:52.675Z,5.67
2019-02-26T19:45:19.903Z,6.50
2019-02-26T19:47:48.881Z,6.83
2019-02-26T19:50:17.927Z,8.63
2019-02-26T19:52:46.963Z,7.33
2019-02-26T19:55:18.494Z,7.23
2019-02-26T19:57:47.398Z,6.17
2019-02-26T20:00:19.680Z,6.93
2019-02-26T20:02:47.399Z,6.10
2019-02-26T20:05:16.855Z,7.70
2019-02-26T20:07:45.859Z,7.50
2019-02-26T20:10:15.773Z,18.17
2019-02-26T20:12:44.736Z,19.70
2019-02-26T20:15:14.034Z,12.10
2019-02-26T20:17:43.018Z,9.23
2019-02-26T20:20:12.846Z,17.00
2019-02-26T20:22:41.844Z,18.03
2019-02-26T20:25:13.006Z,10.67
2019-02-26T20:27:42.216Z,8.63
2019-02-26T20:30:13.031Z,7.57
2019-02-26T20:32:42.037Z,7.30
2019-02-26T20:35:11.999Z,8.37
2019-02-26T20:37:41.479Z,7.67
2019-02-26T20:40:16.008Z,7.93
2019-02-26T20:42:43.024Z,7.40
2019-02-26T20:45:17.754Z,8.03
2019-02-26T20:47:46.205Z,8.73
2019-02-26T20:50:20.027Z,8.00
2019-02-26T20:52:46.049Z,9.17
2019-02-26T20:55:16.652Z,8.77
2019-02-26T20:57:47.004Z,9.27
2019-02-26T21:00:17.547Z,10.03
2019-02-26T21:02:46.642Z,10.27
2019-02-26T21:05:15.885Z,10.87
2019-02-26T21:07:44.906Z,10.00
2019-02-26T21:10:15.920Z,10.07
2019-02-26T21:12:46.599Z,10.30
2019-02-26T21:15:17.252Z,13.10
2019-02-26T21:17:46.246Z,12.50
2019-02-26T21:20:15.354Z,10.40
2019-02-26T21:22:44.199Z,8.77
2019-02-26T21:25:13.289Z,8.73
2019-02-26T21:27:42.363Z,8.50
2019-02-26T21:30:13.960Z,8.83
2019-02-26T21:32:42.906Z,9.87
2019-02-26T21:35:12.101Z,9.60
2019-02-26T21:37:41.129Z,9.20
2019-02-26T21:40:10.765Z,10.07
2019-02-26T21:42:39.755Z,9.03
2019-02-26T21:45:10.050Z,9.57
2019-02-26T21:47:39.033Z,8.93
2019-02-26T21:50:08.930Z,8.70
2019-02-26T21:52:39.773Z,8.50
2019-02-26T21:55:09.226Z,8.93
2019-02-26T21:57:38.181Z,9.47
2019-02-26T22:00:09.899Z,9.87
2019-02-26T22:02:38.803Z,9.87
2019-02-26T22:05:08.755Z,9.00
2019-02-26T22:07:37.788Z,9.30
2019-02-26T22:10:08.277Z,7.87
2019-02-26T22:12:37.224Z,9.10
2019-02-26T22:15:10.079Z,8.13
2019-02-26T22:17:37.801Z,10.40
2019-02-26T22:20:09.245Z,10.27
2019-02-26T22:22:38.208Z,9.20
2019-02-26T22:25:09.822Z,9.00
2019-02-26T22:27:38.232Z,8.50
2019-02-26T22:30:09.111Z,8.80
2019-02-26T22:32:38.815Z,7.87
2019-02-26T22:35:08.250Z,8.53
2019-02-26T22:37:38.933Z,9.00
2019-02-26T22:40:09.205Z,9.97
2019-02-26T22:42:38.806Z,9.07
2019-02-26T22:45:09.616Z,8.67
2019-02-26T22:47:40.462Z,8.00
2019-02-26T22:50:10.504Z,8.83
2019-02-26T22:52:39.384Z,8.33
2019-02-26T22:55:08.969Z,7.60
2019-02-26T22:57:37.878Z,8.57
2019-02-26T23:00:20.970Z,7.77
2019-02-26T23:02:49.801Z,7.83
2019-02-26T23:05:18.800Z,8.43
2019-02-26T23:07:47.783Z,7.80
2019-02-26T23:10:17.705Z,7.77
2019-02-26T23:12:46.578Z,6.97
2019-02-26T23:15:16.582Z,7.83
2019-02-26T23:17:46.480Z,6.90
2019-02-26T23:20:15.635Z,7.63
2019-02-26T23:22:44.493Z,9.50
2019-02-26T23:25:13.842Z,8.43
2019-02-26T23:27:42.813Z,6.97
2019-02-26T23:30:13.348Z,7.67
2019-02-26T23:32:42.340Z,6.77
2019-02-26T23:35:12.216Z,7.07
2019-02-26T23:37:41.177Z,6.30
2019-02-26T23:40:10.943Z,8.73
2019-02-26T23:42:59.036Z,7.57
2019-02-26T23:45:28.045Z,8.40
2019-02-26T23:47:57.059Z,7.93
2019-02-26T23:50:26.032Z,7.23
2019-02-26T23:52:55.027Z,8.03
2019-02-26T23:55:24.668Z,9.53
2019-02-26T23:57:57.685Z,8.47
